Time;durP1;ratioP1;P1;durP2;ratioP2;P2;SDS_P1;SDS_P2;PMS_P1;PMS_P2;Temp;Humidity;BMP_temperature;BMP_pressure;BME280_temperature;BME280_humidity;BME280_pressure;Samples;Min_cycle;Max_cycle;Signal;HPM_P1;HPM_P2
2021/07/31 00:00:29;;;;;;;;;;;;;;;26.85;42.61;100044.70;1846794;77;20297;-56
2021/07/31 00:02:57;;;;;;;;;;;;;;;26.85;42.55;100041.91;1804154;78;20458;-57
2021/07/31 00:05:23;;;;;;;;;;;;;;;26.84;42.51;100047.23;1835438;78;21948;-57
2021/07/31 00:07:49;;;;;;;;;;;;;;;26.83;42.45;100042.83;1835357;78;20138;-57
2021/07/31 00:10:16;;;;;;;;;;;;;;;26.82;42.39;100044.81;1835344;78;20157;-57
2021/07/31 00:12:42;;;;;;;;;;;;;;;26.79;42.35;100045.58;1846117;77;20378;-57
2021/07/31 00:15:10;;;;;;;;;;;;;;;26.79;42.29;100043.38;1850098;77;20500;-57
2021/07/31 00:17:36;;;;;;;;;;;;;;;26.78;42.24;100040.36;1849826;77;21806;-54
2021/07/31 00:20:02;;;;;;;;;;;;;;;26.78;42.19;100045.94;1839698;77;20164;-55
2021/07/31 00:26:08;;;;;;;;;;;;;;;26.75;42.09;100046.12;1839730;77;20136;-56
2021/07/31 00:28:34;;;;;;;;;;;;;;;26.73;42.00;100040.72;1850217;77;20762;-54
2021/07/31 00:31:02;;;;;;;;;;;;;;;26.74;41.99;100047.88;1849200;77;21049;-55
2021/07/31 00:33:29;;;;;;;;;;;;;;;26.76;42.03;100046.34;1837598;77;20279;-56
2021/07/31 00:35:55;;;;;;;;;;;;;;;26.80;42.02;100043.59;1836091;78;20133;-55
2021/07/31 00:38:21;;;;;;;;;;;;;;;26.83;42.04;100044.23;1835993;78;20776;-56
2021/07/31 00:40:47;;;;;;;;;;;;;;;26.87;42.02;100039.52;1837139;78;20171;-56
2021/07/31 00:43:13;;;;;;;;;;;;;;;26.91;42.03;100037.58;1842126;78;22048;-57
2021/07/31 00:45:39;;;;;;;;;;;;;;;26.94;42.04;100048.02;1831261;78;20207;-56
2021/07/31 00:48:05;;;;;;;;;;;;;;;26.99;42.04;100045.48;1842208;78;20159;-56
2021/07/31 00:50:31;;;;;;;;;;;;;;;27.02;42.05;100047.51;1842372;77;20186;-56
2021/07/31 00:52:57;;;;;;;;;;;;;;;27.04;42.07;100044.53;1841715;78;20250;-56
2021/07/31 00:55:24;;;;;;;;;;;;;;;27.07;42.07;100044.39;1842461;78;21056;-55
2021/07/31 00:57:50;;;;;;;;;;;;;;;27.10;42.11;100045.82;1842280;78;20199;-56
2021/07/31 01:00:17;;;;;;;;;;;;;;;27.13;42.12;100047.04;1842292;78;20148;-56
2021/07/31 01:06:00;;;;;;;;;;;;;;;27.19;42.18;100042.73;1842312;78;20393;-56
2021/07/31 01:08:26;;;;;;;;;;;;;;;27.21;42.21;100034.18;1842254;78;21196;-55
2021/07/31 01:10:52;;;;;;;;;;;;;;;27.24;42.23;100042.41;1842367;78;20152;-55
2021/07/31 01:13:18;;;;;;;;;;;;;;;27.25;42.27;100039.21;1842406;78;20675;-55
2021/07/31 01:15:59;;;;;;;;;;;;;;;27.28;42.30;100034.87;1842174;77;20504;-56
2021/07/31 01:18:26;;;;;;;;;;;;;;;27.30;42.33;100045.64;1841126;77;20076;-55
2021/07/31 01:20:52;;;;;;;;;;;;;;;27.33;42.35;100040.71;1842351;78;21123;-56
2021/07/31 01:23:18;;;;;;;;;;;;;;;27.34;42.40;100048.69;1842255;77;20109;-56
2021/07/31 01:25:44;;;;;;;;;;;;;;;27.35;42.42;100050.30;1842628;78;20285;-56
2021/07/31 01:28:10;;;;;;;;;;;;;;;27.38;42.48;100048.72;1842421;78;20465;-56
2021/07/31 01:30:36;;;;;;;;;;;;;;;27.39;42.50;100042.77;1817354;78;20417;-56
2021/07/31 01:33:02;;;;;;;;;;;;;;;27.41;42.54;100047.98;1842354;78;21161;-56
2021/07/31 01:35:28;;;;;;;;;;;;;;;27.43;42.58;100038.61;1841938;78;20152;-55
2021/07/31 01:37:54;;;;;;;;;;;;;;;27.43;42.63;100033.83;1842431;77;20423;-56
2021/07/31 01:40:21;;;;;;;;;;;;;;;27.45;42.64;100035.66;1839291;77;20186;-56
2021/07/31 01:42:46;;;;;;;;;;;;;;;27.46;42.69;100038.64;1835284;78;20159;-56
2021/07/31 01:45:13;;;;;;;;;;;;;;;27.48;42.71;100032.12;1835022;78;22356;-56
2021/07/31 01:47:40;;;;;;;;;;;;;;;27.50;42.74;100033.12;1835320;77;20167;-56
2021/07/31 01:50:07;;;;;;;;;;;;;;;27.51;42.79;100036.94;1835150;78;20172;-56
2021/07/31 01:52:33;;;;;;;;;;;;;;;27.52;42.84;100039.95;1849807;77;20431;-55
2021/07/31 01:55:00;;;;;;;;;;;;;;;27.53;42.87;100038.77;1850027;77;20246;-55
2021/07/31 01:57:26;;;;;;;;;;;;;;;27.55;42.89;100037.78;1850098;77;21795;-56
2021/07/31 01:59:52;;;;;;;;;;;;;;;27.55;42.92;100034.98;1849710;77;20449;-56
2021/07/31 02:02:18;;;;;;;;;;;;;;;27.56;42.98;100038.59;1849673;77;20413;-55
2021/07/31 02:04:44;;;;;;;;;;;;;;;27.58;43.00;100043.98;1850104;77;20807;-56
2021/07/31 02:07:10;;;;;;;;;;;;;;;27.59;43.06;100042.00;1849853;77;20147;-56
2021/07/31 02:09:37;;;;;;;;;;;;;;;27.59;43.09;100047.00;1850080;77;21077;-56
2021/07/31 02:12:04;;;;;;;;;;;;;;;27.61;43.14;100045.23;1849828;77;20242;-56
2021/07/31 02:14:30;;;;;;;;;;;;;;;27.61;43.15;100043.24;1850043;77;20385;-56
2021/07/31 02:16:56;;;;;;;;;;;;;;;27.63;43.20;100044.23;1850120;77;20629;-55
2021/07/31 02:20:10;;;;;;;;;;;;;;;27.63;43.22;100040.85;1850207;77;20416;-56
2021/07/31 02:22:36;;;;;;;;;;;;;;;27.64;43.25;100038.86;1849655;77;21081;-56
2021/07/31 02:25:01;;;;;;;;;;;;;;;27.65;43.30;100043.27;1849972;77;20174;-56
2021/07/31 02:27:27;;;;;;;;;;;;;;;27.65;43.32;100039.08;1855007;77;20208;-56
2021/07/31 02:29:54;;;;;;;;;;;;;;;27.66;43.36;100030.33;1855766;77;20169;-56
2021/07/31 02:32:20;;;;;;;;;;;;;;;27.66;43.41;100036.50;1836825;77;20421;-57
2021/07/31 02:34:46;;;;;;;;;;;;;;;27.67;43.43;100030.52;1833596;78;20990;-56
2021/07/31 02:37:12;;;;;;;;;;;;;;;27.68;43.47;100031.32;1833694;78;20471;-56
2021/07/31 02:39:38;;;;;;;;;;;;;;;27.69;43.52;100037.13;1833546;78;20250;-55
2021/07/31 02:42:04;;;;;;;;;;;;;;;27.68;43.54;100048.89;1833572;78;20408;-55
2021/07/31 02:44:30;;;;;;;;;;;;;;;27.69;43.59;100062.28;1833577;77;20443;-55
2021/07/31 02:46:56;;;;;;;;;;;;;;;27.70;43.60;100059.70;1833797;78;21075;-54
2021/07/31 02:49:22;;;;;;;;;;;;;;;27.71;43.65;100059.89;1833775;78;20153;-53
2021/07/31 02:51:48;;;;;;;;;;;;;;;27.71;43.70;100062.69;1833365;78;20153;-56
2021/07/31 02:54:15;;;;;;;;;;;;;;;27.71;43.73;100055.11;1833405;78;20125;-56
2021/07/31 02:56:41;;;;;;;;;;;;;;;27.73;43.77;100058.92;1833715;78;20169;-56
2021/07/31 02:59:07;;;;;;;;;;;;;;;27.74;43.81;100063.34;1833926;78;21383;-56
2021/07/31 03:01:34;;;;;;;;;;;;;;;27.73;43.84;100063.12;1833615;78;20358;-55
2021/07/31 03:04:00;;;;;;;;;;;;;;;27.75;43.87;100062.74;1833434;78;20165;-56
2021/07/31 03:06:26;;;;;;;;;;;;;;;27.75;43.92;100061.34;1833735;78;20163;-56
2021/07/31 03:08:52;;;;;;;;;;;;;;;27.76;43.94;100068.52;1833386;78;20203;-55
2021/07/31 03:11:18;;;;;;;;;;;;;;;27.76;43.98;100073.52;1844530;77;21174;-56
2021/07/31 03:13:43;;;;;;;;;;;;;;;27.77;44.00;100068.73;1849899;77;20771;-56
2021/07/31 03:16:09;;;;;;;;;;;;;;;27.77;44.05;100069.55;1849816;77;20308;-57
2021/07/31 03:18:35;;;;;;;;;;;;;;;27.78;44.07;100067.55;1849935;77;20154;-56
2021/07/31 03:21:01;;;;;;;;;;;;;;;27.78;44.11;100066.16;1849728;77;20151;-56
2021/07/31 03:23:27;;;;;;;;;;;;;;;27.78;44.13;100066.97;1849655;77;21072;-56
2021/07/31 03:25:57;;;;;;;;;;;;;;;27.80;44.17;100068.77;1850076;77;20225;-55
2021/07/31 03:28:24;;;;;;;;;;;;;;;27.80;44.19;100071.56;1850151;77;20155;-56
2021/07/31 03:30:50;;;;;;;;;;;;;;;27.81;44.22;100063.98;1849620;77;20463;-56
2021/07/31 03:33:15;;;;;;;;;;;;;;;27.80;44.25;100068.77;1849936;77;20166;-56
2021/07/31 03:35:42;;;;;;;;;;;;;;;27.81;44.29;100066.19;1850034;77;21112;-57
2021/07/31 03:38:08;;;;;;;;;;;;;;;27.81;44.30;100074.58;1850021;77;20200;-56
2021/07/31 03:40:34;;;;;;;;;;;;;;;27.82;44.35;100074.80;1849809;77;20452;-56
2021/07/31 03:43:00;;;;;;;;;;;;;;;27.83;44.36;100079.20;1850378;77;20129;-56
2021/07/31 03:45:26;;;;;;;;;;;;;;;27.83;44.41;100078.40;1850372;77;20146;-56
2021/07/31 03:47:52;;;;;;;;;;;;;;;27.83;44.43;100077.00;1850357;77;21038;-56
2021/07/31 03:50:18;;;;;;;;;;;;;;;27.84;44.46;100073.02;1849891;77;21606;-56
2021/07/31 03:52:44;;;;;;;;;;;;;;;27.85;44.48;100078.80;1850151;77;20210;-56
2021/07/31 03:55:10;;;;;;;;;;;;;;;27.84;44.52;100080.01;1850471;77;20154;-56
2021/07/31 03:57:36;;;;;;;;;;;;;;;27.84;44.53;100071.00;1850544;77;20414;-57
2021/07/31 04:00:03;;;;;;;;;;;;;;;27.86;44.57;100076.22;1850100;77;23212;-57
2021/07/31 04:02:29;;;;;;;;;;;;;;;27.86;44.59;100079.83;1850439;77;20467;-56
2021/07/31 04:04:56;;;;;;;;;;;;;;;27.86;44.63;100079.83;1850584;77;20414;-56
2021/07/31 04:07:22;;;;;;;;;;;;;;;27.85;44.64;100082.41;1850496;77;20155;-57
2021/07/31 04:09:48;;;;;;;;;;;;;;;27.86;44.69;100086.81;1850545;77;20150;-57
2021/07/31 04:15:54;;;;;;;;;;;;;;;27.87;44.72;100086.22;1850279;77;20221;-56
2021/07/31 04:18:20;;;;;;;;;;;;;;;27.87;44.75;100084.23;1845212;77;20312;-56
2021/07/31 04:20:46;;;;;;;;;;;;;;;27.87;44.77;100087.03;1829817;77;21043;-56
2021/07/31 04:23:12;;;;;;;;;;;;;;;27.87;44.79;100086.22;1829942;78;20252;-56
2021/07/31 04:25:38;;;;;;;;;;;;;;;27.87;44.84;100086.22;1829628;78;20669;-56
2021/07/31 04:28:05;;;;;;;;;;;;;;;27.87;44.87;100089.83;1829839;78;20162;-56
2021/07/31 04:30:33;;;;;;;;;;;;;;;27.87;44.90;100092.63;1849676;77;20132;-56
2021/07/31 04:32:59;;;;;;;;;;;;;;;27.87;44.92;100082.84;1850231;77;20159;-55
2021/07/31 04:35:25;;;;;;;;;;;;;;;27.87;44.96;100085.63;1850177;77;20132;-56
2021/07/31 04:37:52;;;;;;;;;;;;;;;27.88;44.99;100085.82;1850181;77;21428;-55
2021/07/31 04:40:18;;;;;;;;;;;;;;;27.88;45.01;100085.04;1850140;77;20187;-56
2021/07/31 04:42:44;;;;;;;;;;;;;;;27.88;45.04;100074.64;1850142;77;20128;-55
2021/07/31 04:45:43;;;;;;;;;;;;;;;27.90;45.07;100072.27;1846419;77;20137;-56
2021/07/31 04:48:09;;;;;;;;;;;;;;;27.89;45.09;100067.86;1835582;78;20161;-56
2021/07/31 04:50:35;;;;;;;;;;;;;;;27.89;45.14;100059.48;1836072;78;21207;-56
2021/07/31 04:53:01;;;;;;;;;;;;;;;27.90;45.15;100072.27;1835977;78;20198;-56
2021/07/31 04:55:27;;;;;;;;;;;;;;;27.89;45.17;100069.27;1836058;78;20149;-54
2021/07/31 04:57:53;;;;;;;;;;;;;;;27.91;45.23;100070.28;1835527;78;20136;-54
2021/07/31 05:00:19;;;;;;;;;;;;;;;27.91;45.24;100070.28;1836176;77;20141;-56
2021/07/31 05:02:45;;;;;;;;;;;;;;;27.91;45.25;100073.89;1835594;78;23253;-57
2021/07/31 05:05:11;;;;;;;;;;;;;;;27.90;45.28;100072.27;1835961;77;20145;-56
2021/07/31 05:07:37;;;;;;;;;;;;;;;27.92;45.31;100080.29;1835906;78;20181;-55
2021/07/31 05:10:04;;;;;;;;;;;;;;;27.92;45.35;100078.27;1835938;78;20168;-55
2021/07/31 05:12:30;;;;;;;;;;;;;;;27.92;45.37;100075.47;1836033;78;20149;-56
2021/07/31 05:14:56;;;;;;;;;;;;;;;27.92;45.38;100075.47;1835815;78;21176;-56
2021/07/31 05:17:22;;;;;;;;;;;;;;;27.93;45.42;100079.08;1837953;77;20156;-56
2021/07/31 05:19:49;;;;;;;;;;;;;;;27.93;45.46;100084.08;1849958;77;20397;-55
2021/07/31 05:22:15;;;;;;;;;;;;;;;27.94;45.50;100079.30;1840551;77;20943;-55
2021/07/31 05:24:41;;;;;;;;;;;;;;;27.95;45.53;100083.70;1840902;77;20176;-56
2021/07/31 05:27:08;;;;;;;;;;;;;;;27.94;45.51;100087.09;1833953;78;21518;-56
2021/07/31 05:29:34;;;;;;;;;;;;;;;27.95;45.60;100086.50;1833908;78;20153;-56
2021/07/31 05:32:00;;;;;;;;;;;;;;;27.95;45.65;100098.48;1833904;78;20419;-56
2021/07/31 05:34:26;;;;;;;;;;;;;;;27.94;45.69;100098.27;1833266;78;22255;-56
2021/07/31 05:36:52;;;;;;;;;;;;;;;27.94;45.75;100103.86;1833566;78;20145;-55
2021/07/31 05:39:18;;;;;;;;;;;;;;;27.95;45.80;100114.45;1833640;78;21424;-56
2021/07/31 05:41:44;;;;;;;;;;;;;;;27.95;45.81;100113.87;1833337;78;20120;-57
2021/07/31 05:44:10;;;;;;;;;;;;;;;27.93;45.84;100128.00;1833528;78;20156;-55
2021/07/31 05:46:36;;;;;;;;;;;;;;;27.88;45.85;100119.98;1833806;78;20220;-56
2021/07/31 05:49:02;;;;;;;;;;;;;;;27.83;45.86;100121.14;1833426;78;20208;-56
2021/07/31 05:51:29;;;;;;;;;;;;;;;27.79;45.87;100111.91;1833797;78;21125;-55
2021/07/31 05:53:55;;;;;;;;;;;;;;;27.75;45.86;100122.25;1833360;78;20157;-56
2021/07/31 05:56:21;;;;;;;;;;;;;;;27.70;45.87;100120.59;1833736;78;20219;-55
2021/07/31 05:58:47;;;;;;;;;;;;;;;27.67;45.89;100124.72;1833792;78;20601;-56
2021/07/31 06:01:13;;;;;;;;;;;;;;;27.63;45.84;100122.48;1833799;78;20122;-56
2021/07/31 06:03:39;;;;;;;;;;;;;;;27.59;45.88;100121.64;1833467;78;23259;-56
2021/07/31 06:06:05;;;;;;;;;;;;;;;27.57;45.88;100124.03;1846400;77;20159;-56
2021/07/31 06:08:31;;;;;;;;;;;;;;;27.52;45.85;100118.77;1849728;77;20148;-56
2021/07/31 06:11:04;;;;;;;;;;;;;;;27.50;45.88;100121.13;1849909;77;20159;-55
2021/07/31 06:13:31;;;;;;;;;;;;;;;27.46;45.85;100119.66;1849837;77;20456;-56
2021/07/31 06:15:57;;;;;;;;;;;;;;;27.44;45.89;100124.03;1849524;77;21413;-54
2021/07/31 06:18:23;;;;;;;;;;;;;;;27.41;45.91;100122.82;1849912;77;20846;-56
2021/07/31 06:20:50;;;;;;;;;;;;;;;27.39;45.93;100118.19;1838436;77;20204;-54
2021/07/31 06:23:17;;;;;;;;;;;;;;;27.38;45.92;100115.77;1835592;78;20161;-53
2021/07/31 06:25:43;;;;;;;;;;;;;;;27.37;45.88;100117.75;1835775;78;20145;-54
2021/07/31 06:28:09;;;;;;;;;;;;;;;27.37;45.82;100114.18;1848454;77;21931;-54
2021/07/31 06:30:35;;;;;;;;;;;;;;;27.35;45.79;100115.14;1849884;77;20175;-55
2021/07/31 06:33:01;;;;;;;;;;;;;;;27.34;45.76;100112.13;1850024;77;20112;-54
2021/07/31 06:35:27;;;;;;;;;;;;;;;27.32;45.72;100110.32;1848629;77;20186;-59
2021/07/31 06:37:53;;;;;;;;;;;;;;;27.31;45.66;100112.30;1837514;77;20126;-57
2021/07/31 06:40:19;;;;;;;;;;;;;;;27.32;45.68;100116.72;1834359;77;21069;-57
2021/07/31 06:42:45;;;;;;;;;;;;;;;27.34;45.64;100111.53;1801291;77;20206;-57
2021/07/31 06:45:12;;;;;;;;;;;;;;;27.35;45.57;100110.95;1795658;78;20150;-57
2021/07/31 06:47:38;;;;;;;;;;;;;;;27.34;45.50;100110.14;1793052;78;20509;-57
2021/07/31 06:50:09;;;;;;;;;;;;;;;27.31;45.49;100110.91;1799391;78;20193;-56
2021/07/31 06:52:33;;;;;;;;;;;;;;;27.31;45.43;100115.69;1793771;78;21308;-57
2021/07/31 06:54:59;;;;;;;;;;;;;;;27.28;45.40;100115.87;1794695;78;20229;-57
2021/07/31 06:57:25;;;;;;;;;;;;;;;27.28;45.35;100117.85;1795312;78;20288;-57
2021/07/31 06:59:51;;;;;;;;;;;;;;;27.25;45.29;100120.20;1798437;78;20199;-58
2021/07/31 07:02:17;;;;;;;;;;;;;;;27.24;45.24;100115.02;1789810;78;20237;-57
2021/07/31 07:04:44;;;;;;;;;;;;;;;27.23;45.19;100118.40;1805073;78;21100;-58
2021/07/31 07:07:10;;;;;;;;;;;;;;;27.20;45.14;100123.33;1807075;78;20125;-57
2021/07/31 07:09:35;;;;;;;;;;;;;;;27.18;45.07;100121.52;1796048;78;20211;-58
2021/07/31 07:12:02;;;;;;;;;;;;;;;27.17;45.01;100122.70;1799919;78;20276;-57
2021/07/31 07:14:28;;;;;;;;;;;;;;;27.16;44.97;100118.28;1802711;78;20467;-58
2021/07/31 07:16:54;;;;;;;;;;;;;;;27.15;44.92;100120.08;1798873;78;21123;-58
2021/07/31 07:19:20;;;;;;;;;;;;;;;27.15;44.85;100121.47;1802380;78;20233;-58
2021/07/31 07:21:46;;;;;;;;;;;;;;;27.13;44.79;100116.84;1792273;78;20196;-58
2021/07/31 07:24:12;;;;;;;;;;;;;;;27.12;44.73;100113.25;1791931;78;20254;-58
2021/07/31 07:26:38;;;;;;;;;;;;;;;27.12;44.74;100116.04;1798039;78;20758;-57
2021/07/31 07:29:04;;;;;;;;;;;;;;;27.15;44.75;100113.91;1806938;78;21056;-58
2021/07/31 07:31:32;;;;;;;;;;;;;;;27.19;44.69;100116.74;1803784;78;20228;-57
2021/07/31 07:33:59;;;;;;;;;;;;;;;27.23;44.70;100112.00;1795540;78;20569;-57
2021/07/31 07:36:25;;;;;;;;;;;;;;;27.25;44.66;100109.03;1800682;78;20257;-57
2021/07/31 07:38:51;;;;;;;;;;;;;;;27.29;44.67;100110.47;1794048;78;20225;-57
2021/07/31 07:41:18;;;;;;;;;;;;;;;27.32;44.67;100105.55;1798857;77;21492;-58
2021/07/31 07:43:45;;;;;;;;;;;;;;;27.35;44.68;100104.77;1837771;76;20399;-57
2021/07/31 07:46:14;;;;;;;;;;;;;;;27.37;44.65;100098.20;1838498;76;20368;-57
2021/07/31 07:48:42;;;;;;;;;;;;;;;27.39;44.66;100091.66;1840185;76;20218;-57
2021/07/31 07:51:08;;;;;;;;;;;;;;;27.42;44.67;100096.47;1837786;76;20218;-57
2021/07/31 07:53:34;;;;;;;;;;;;;;;27.44;44.68;100093.30;1844793;76;21919;-57
2021/07/31 07:56:00;;;;;;;;;;;;;;;27.45;44.69;100095.73;1840787;76;20097;-57
2021/07/31 07:58:26;;;;;;;;;;;;;;;27.48;44.68;100100.58;1844281;76;20138;-57
2021/07/31 08:00:52;;;;;;;;;;;;;;;27.50;44.71;100096.80;1841418;76;20120;-57
2021/07/31 08:03:18;;;;;;;;;;;;;;;27.52;44.71;100095.83;1839408;76;20800;-57
2021/07/31 08:05:45;;;;;;;;;;;;;;;27.54;44.75;100098.26;1838766;76;21043;-57
2021/07/31 08:08:11;;;;;;;;;;;;;;;27.56;44.78;100100.86;1836993;76;20126;-57
2021/07/31 08:10:37;;;;;;;;;;;;;;;27.57;44.79;100087.11;1843452;76;20214;-57
2021/07/31 08:13:03;;;;;;;;;;;;;;;27.59;44.81;100093.11;1841346;76;20170;-57
2021/07/31 08:15:29;;;;;;;;;;;;;;;27.61;44.82;100091.34;1839747;76;20120;-58
2021/07/31 08:17:55;;;;;;;;;;;;;;;27.63;44.84;100090.34;1837072;76;21024;-57
2021/07/31 08:20:21;;;;;;;;;;;;;;;27.63;44.87;100087.55;1835947;76;20302;-58
2021/07/31 08:22:48;;;;;;;;;;;;;;;27.64;44.87;100089.98;1837605;76;20463;-57
2021/07/31 08:25:14;;;;;;;;;;;;;;;27.67;44.89;100087.00;1838285;76;20164;-58
2021/07/31 08:27:40;;;;;;;;;;;;;;;27.68;44.89;100081.63;1844237;76;20220;-58
2021/07/31 08:30:07;;;;;;;;;;;;;;;27.69;44.93;100076.25;1837750;76;21160;-57
2021/07/31 08:32:33;;;;;;;;;;;;;;;27.71;44.95;100073.86;1838420;76;20151;-58
2021/07/31 08:35:02;;;;;;;;;;;;;;;27.71;44.97;100079.45;1842571;76;20408;-58
2021/07/31 08:37:28;;;;;;;;;;;;;;;27.73;44.98;100079.08;1838715;76;20206;-57
2021/07/31 08:39:54;;;;;;;;;;;;;;;27.74;45.00;100069.52;1840736;76;20175;-57
2021/07/31 08:42:20;;;;;;;;;;;;;;;27.75;45.01;100067.75;1838907;76;20916;-58
2021/07/31 08:44:48;;;;;;;;;;;;;;;27.76;45.03;100074.11;1836833;76;20765;-58
2021/07/31 08:47:14;;;;;;;;;;;;;;;27.77;45.04;100075.72;1841190;76;20133;-57
2021/07/31 08:49:45;;;;;;;;;;;;;;;27.79;45.08;100081.75;1837765;76;20349;-57
2021/07/31 08:52:11;;;;;;;;;;;;;;;27.79;45.10;100074.17;1835177;77;20156;-57
2021/07/31 08:54:38;;;;;;;;;;;;;;;27.80;45.08;100069.36;1806050;77;21124;-58
2021/07/31 08:57:04;;;;;;;;;;;;;;;27.81;45.11;100070.38;1839052;76;20275;-58
2021/07/31 08:59:30;;;;;;;;;;;;;;;27.82;45.12;100078.98;1840603;76;20125;-58
2021/07/31 09:01:56;;;;;;;;;;;;;;;27.83;45.15;100077.80;1842817;77;20174;-57
2021/07/31 09:04:23;;;;;;;;;;;;;;;27.84;45.16;100075.20;1838757;76;20383;-57
2021/07/31 09:06:49;;;;;;;;;;;;;;;27.85;45.18;100070.41;1842013;76;20991;-58
2021/07/31 09:09:27;;;;;;;;;;;;;;;27.85;45.21;100067.62;1836828;76;20154;-58
2021/07/31 09:12:01;;;;;;;;;;;;;;;27.87;45.21;100069.45;1837391;76;20135;-57
2021/07/31 09:14:28;;;;;;;;;;;;;;;27.88;45.22;100075.26;1839345;76;20254;-57
2021/07/31 09:16:54;;;;;;;;;;;;;;;27.88;45.22;100070.44;1841447;76;20124;-57
2021/07/31 09:19:21;;;;;;;;;;;;;;;27.89;45.22;100070.66;1840924;76;21089;-57
2021/07/31 09:21:48;;;;;;;;;;;;;;;27.90;45.24;100066.68;1835763;76;20161;-57
2021/07/31 09:24:22;;;;;;;;;;;;;;;27.91;45.24;100070.28;1843874;76;20144;-58
2021/07/31 09:26:52;;;;;;;;;;;;;;;27.92;45.25;100070.50;1838335;76;20220;-57
2021/07/31 09:29:21;;;;;;;;;;;;;;;27.93;45.26;100069.29;1837493;76;20133;-57
2021/07/31 09:31:49;;;;;;;;;;;;;;;27.93;45.25;100068.70;1840261;76;20998;-57
2021/07/31 09:34:32;;;;;;;;;;;;;;;27.93;45.28;100068.70;1837986;76;21528;-57
2021/07/31 09:37:13;;;;;;;;;;;;;;;27.95;45.28;100058.54;1841395;76;20131;-58
2021/07/31 09:39:47;;;;;;;;;;;;;;;27.95;45.29;100056.55;1839801;76;20458;-58
2021/07/31 09:42:33;;;;;;;;;;;;;;;27.96;45.27;100064.34;1821700;76;20651;-57
2021/07/31 09:45:01;;;;;;;;;;;;;;;27.97;45.29;100058.34;1842036;76;21171;-58
2021/07/31 09:47:27;;;;;;;;;;;;;;;27.97;45.29;100048.56;1836795;76;20161;-57
2021/07/31 09:49:53;;;;;;;;;;;;;;;27.98;45.32;100054.37;1837241;76;20113;-57
2021/07/31 09:52:21;;;;;;;;;;;;;;;27.99;45.32;100046.79;1837897;76;20429;-57
2021/07/31 09:54:47;;;;;;;;;;;;;;;27.99;45.33;100042.00;1838031;76;20196;-58
2021/07/31 09:57:13;;;;;;;;;;;;;;;28.00;45.33;100044.21;1841716;76;21142;-57
2021/07/31 09:59:47;;;;;;;;;;;;;;;28.01;45.35;100040.20;1838926;76;20157;-57
2021/07/31 10:02:19;;;;;;;;;;;;;;;28.01;45.35;100041.01;1790483;78;20130;-58
2021/07/31 10:04:45;;;;;;;;;;;;;;;28.03;45.36;100040.63;1767082;80;20717;-57
2021/07/31 10:07:14;;;;;;;;;;;;;;;28.03;45.38;100033.05;1770151;78;20201;-58
2021/07/31 10:09:42;;;;;;;;;;;;;;;28.04;45.39;100031.06;1789133;78;21174;-57
2021/07/31 10:12:10;;;;;;;;;;;;;;;28.05;45.41;100031.28;1760767;80;20125;-57
2021/07/31 10:14:39;;;;;;;;;;;;;;;28.06;45.41;100025.88;1782480;78;20485;-57
2021/07/31 10:17:05;;;;;;;;;;;;;;;28.07;45.40;100026.89;1783581;78;20418;-57
2021/07/31 10:19:40;;;;;;;;;;;;;;;28.09;45.41;100030.12;1785903;78;20454;-57
2021/07/31 10:22:06;;;;;;;;;;;;;;;28.10;45.45;100024.74;1786718;78;23208;-58
2021/07/31 10:24:52;;;;;;;;;;;;;;;28.12;45.45;100018.77;1785575;78;20222;-58
2021/07/31 10:27:21;;;;;;;;;;;;;;;28.14;45.46;100010.78;1796534;78;20137;-57
2021/07/31 10:29:47;;;;;;;;;;;;;;;28.15;45.46;100013.80;1799583;78;20724;-57
2021/07/31 10:32:23;;;;;;;;;;;;;;;28.17;45.45;100014.81;1787308;78;20148;-57
2021/07/31 10:34:53;;;;;;;;;;;;;;;28.18;45.47;100014.41;1790098;78;21104;-57
2021/07/31 10:37:32;;;;;;;;;;;;;;;28.20;45.48;100016.83;1786677;78;20303;-57
2021/07/31 10:40:01;;;;;;;;;;;;;;;28.21;45.51;100017.84;1790450;78;20137;-57
2021/07/31 10:42:49;;;;;;;;;;;;;;;28.21;45.49;100009.45;1786340;78;20684;-57
2021/07/31 10:45:31;;;;;;;;;;;;;;;28.23;45.54;100009.85;1804670;78;20165;-57
2021/07/31 10:48:04;;;;;;;;;;;;;;;28.25;45.56;100010.88;1797060;78;21291;-58
2021/07/31 10:50:33;;;;;;;;;;;;;;;28.27;45.54;100009.87;1787303;78;20166;-57
2021/07/31 10:53:06;;;;;;;;;;;;;;;28.28;45.55;100001.70;1785896;78;20378;-57
2021/07/31 10:55:45;;;;;;;;;;;;;;;28.29;45.57;100007.50;1799164;78;20130;-57
2021/07/31 10:58:16;;;;;;;;;;;;;;;28.30;45.61;100003.52;1787561;78;20161;-57
2021/07/31 11:00:44;;;;;;;;;;;;;;;28.32;45.60;100001.12;1797488;78;21137;-57
2021/07/31 11:03:27;;;;;;;;;;;;;;;28.34;45.60;99998.75;1756967;79;20433;-57
2021/07/31 11:05:51;;;;;;;;;;;;;;;28.34;45.64;100002.95;1782911;78;20221;-57
2021/07/31 11:08:34;;;;;;;;;;;;;;;28.36;45.65;100004.75;1788414;79;20247;-58
2021/07/31 11:11:19;;;;;;;;;;;;;;;28.37;45.65;99995.97;1787133;78;20129;-58
2021/07/31 11:13:51;;;;;;;;;;;;;;;28.38;45.68;99991.98;1786044;78;21037;-56
2021/07/31 11:16:18;;;;;;;;;;;;;;;28.40;45.69;99988.19;1802987;78;20381;-57
2021/07/31 11:18:47;;;;;;;;;;;;;;;28.41;45.72;99992.60;1753761;80;20176;-58
2021/07/31 11:21:26;;;;;;;;;;;;;;;28.44;45.74;99986.81;1759485;80;21213;-57
2021/07/31 11:23:59;;;;;;;;;;;;;;;28.44;45.74;99984.81;1800269;78;20130;-58
2021/07/31 11:26:51;;;;;;;;;;;;;;;28.46;45.77;99974.05;1785053;78;21205;-58
2021/07/31 11:29:25;;;;;;;;;;;;;;;28.48;45.77;99979.23;1793305;78;20162;-57
2021/07/31 11:32:12;;;;;;;;;;;;;;;28.48;45.78;99977.24;1791468;78;20193;-57
2021/07/31 11:34:44;;;;;;;;;;;;;;;28.51;45.80;99977.88;1790379;78;20422;-57
2021/07/31 11:37:11;;;;;;;;;;;;;;;28.53;45.82;99980.27;1788749;78;20406;-57
2021/07/31 11:39:37;;;;;;;;;;;;;;;28.54;45.85;99972.09;1788626;78;21772;-58
2021/07/31 11:42:04;;;;;;;;;;;;;;;28.55;45.86;99968.10;1785462;78;20196;-58
2021/07/31 11:44:31;;;;;;;;;;;;;;;28.57;45.89;99971.30;1779611;78;20122;-58
2021/07/31 11:46:57;;;;;;;;;;;;;;;28.58;45.90;99968.11;1776991;79;20133;-59
2021/07/31 11:49:34;;;;;;;;;;;;;;;28.60;45.93;99969.91;1777295;79;20223;-57
2021/07/31 11:52:03;;;;;;;;;;;;;;;28.61;45.93;99962.31;1775188;79;21172;-57
2021/07/31 11:54:30;;;;;;;;;;;;;;;28.64;45.95;99965.75;1776340;80;20222;-57
2021/07/31 11:56:58;;;;;;;;;;;;;;;28.65;45.94;99956.14;1779543;79;20437;-58
2021/07/31 11:59:28;;;;;;;;;;;;;;;28.68;45.96;99958.17;1778552;79;20237;-59
2021/07/31 12:01:55;;;;;;;;;;;;;;;28.70;45.99;99953.59;1778818;79;20203;-58
2021/07/31 12:04:47;;;;;;;;;;;;;;;28.71;46.00;99952.41;1780283;79;21109;-58
2021/07/31 12:07:24;;;;;;;;;;;;;;;28.73;46.00;99950.80;1774572;79;20151;-56
2021/07/31 12:10:09;;;;;;;;;;;;;;;28.75;46.01;99943.42;1777929;79;20133;-57
2021/07/31 12:12:36;;;;;;;;;;;;;;;28.77;46.00;99944.62;1780742;79;20706;-56
2021/07/31 12:15:19;;;;;;;;;;;;;;;28.78;46.01;99936.44;1779844;79;20144;-57
2021/07/31 12:18:02;;;;;;;;;;;;;;;28.79;46.05;99939.44;1779069;79;21443;-57
2021/07/31 12:20:29;;;;;;;;;;;;;;;28.83;46.03;99938.05;1796461;78;20157;-58
2021/07/31 12:22:56;;;;;;;;;;;;;;;28.84;46.04;99935.46;1800026;78;20129;-58
2021/07/31 12:25:23;;;;;;;;;;;;;;;28.86;46.06;99932.45;1794870;78;20131;-57
2021/07/31 12:28:10;;;;;;;;;;;;;;;28.87;46.08;99929.88;1768988;80;20138;-58
2021/07/31 12:30:39;;;;;;;;;;;;;;;28.89;46.08;99924.69;1761798;80;21422;-57
2021/07/31 12:33:08;;;;;;;;;;;;;;;28.91;46.10;99932.67;1763272;80;20197;-57
2021/07/31 12:35:43;;;;;;;;;;;;;;;28.93;46.10;99931.11;1738264;81;20120;-58
2021/07/31 12:38:17;;;;;;;;;;;;;;;28.94;46.11;99928.48;1740768;81;20152;-57
2021/07/31 12:40:43;;;;;;;;;;;;;;;28.95;46.13;99926.48;1737242;81;20144;-58
2021/07/31 12:43:16;;;;;;;;;;;;;;;28.97;46.13;99929.70;1743449;80;21520;-57
2021/07/31 12:45:44;;;;;;;;;;;;;;;28.97;46.13;99929.11;1784615;78;20210;-57
2021/07/31 12:48:14;;;;;;;;;;;;;;;28.99;46.14;99925.90;1783436;78;20144;-57
2021/07/31 12:50:42;;;;;;;;;;;;;;;28.99;46.16;99929.50;1785610;78;20232;-58
2021/07/31 12:53:09;;;;;;;;;;;;;;;29.01;46.17;99927.72;1782378;79;20227;-57